Time;durP1;ratioP1;P1;durP2;ratioP2;P2;SDS_P1;SDS_P2;PMS_P1;PMS_P2;Temp;Humidity;BMP_temperature;BMP_pressure;BME280_temperature;BME280_humidity;BME280_pressure;Samples;Min_cycle;Max_cycle;Signal;HPM_P1;HPM_P2
2021/09/01 00:00:34;;;;;;;4.80;4.40;;;;;;;13.20;100.00;98790.68;111241;1197;72703;-83
2021/09/01 00:03:03;;;;;;;5.30;4.80;;;;;;;13.20;100.00;98791.75;111172;1197;61011;-84
2021/09/01 00:05:30;;;;;;;5.30;4.40;;;;;;;13.22;100.00;98792.14;111213;1197;61104;-84
2021/09/01 00:07:57;;;;;;;4.70;4.20;;;;;;;13.24;100.00;98792.38;111219;1205;64742;-84
2021/09/01 00:10:24;;;;;;;4.40;4.00;;;;;;;13.25;100.00;98790.88;111222;1197;60999;-83
2021/09/01 00:12:50;;;;;;;4.80;4.20;;;;;;;13.26;100.00;98797.38;111224;1206;63963;-85
2021/09/01 00:15:17;;;;;;;4.40;4.00;;;;;;;13.27;100.00;98801.05;111139;1206;61082;-84
2021/09/01 00:17:44;;;;;;;4.20;3.90;;;;;;;13.28;100.00;98803.81;111073;1206;61168;-83
2021/09/01 00:20:11;;;;;;;4.70;4.20;;;;;;;13.30;100.00;98801.02;111096;1206;65993;-83
2021/09/01 00:22:38;;;;;;;4.80;4.20;;;;;;;13.29;100.00;98801.05;111289;1205;61056;-85
2021/09/01 00:25:06;;;;;;;6.80;3.80;;;;;;;13.30;100.00;98803.67;111300;1205;62715;-84
2021/09/01 00:27:33;;;;;;;4.50;4.10;;;;;;;13.30;100.00;98805.06;111099;1205;61174;-83
2021/09/01 00:30:00;;;;;;;4.30;3.90;;;;;;;13.31;100.00;98807.46;111376;1197;61090;-85
2021/09/01 00:32:27;;;;;;;4.40;4.00;;;;;;;13.32;100.00;98807.42;111299;1205;65970;-86
2021/09/01 00:34:53;;;;;;;6.40;4.30;;;;;;;13.33;100.00;98807.36;111101;1205;61093;-88
2021/09/01 00:37:20;;;;;;;5.20;4.70;;;;;;;13.33;100.00;98804.30;111121;1205;64026;-87
2021/09/01 00:39:47;;;;;;;5.40;4.60;;;;;;;13.33;100.00;98806.23;111093;1206;61159;-85
2021/09/01 00:42:14;;;;;;;5.40;4.50;;;;;;;13.35;100.00;98807.05;111168;1197;61094;-84
2021/09/01 00:44:41;;;;;;;5.10;4.50;;;;;;;13.34;100.00;98813.34;111146;1205;66129;-84
2021/09/01 00:47:08;;;;;;;4.50;4.10;;;;;;;13.34;100.00;98817.07;111127;1205;61003;-84
2021/09/01 00:49:35;;;;;;;4.30;3.90;;;;;;;13.35;100.00;98817.37;111130;1206;62388;-84
2021/09/01 00:52:04;;;;;;;4.60;4.10;;;;;;;13.35;100.00;98820.38;111123;1206;61084;-84
2021/09/01 00:54:31;;;;;;;4.20;3.80;;;;;;;13.33;100.00;98821.60;111245;1197;61116;-84
2021/09/01 00:57:01;;;;;;;4.10;3.40;;;;;;;13.31;100.00;98819.14;111202;1205;66028;-84
2021/09/01 00:59:32;;;;;;;4.10;3.70;;;;;;;13.28;100.00;98820.61;111177;1200;61485;-84
2021/09/01 01:02:00;;;;;;;3.70;3.40;;;;;;;13.26;100.00;98820.91;111233;1205;62327;-84
2021/09/01 01:04:28;;;;;;;3.80;3.20;;;;;;;13.25;100.00;98822.41;111218;1205;61184;-84
2021/09/01 01:07:06;;;;;;;3.70;3.20;;;;;;;13.26;100.00;98826.13;111176;1197;61075;-84
2021/09/01 01:09:37;;;;;;;3.00;2.70;;;;;;;13.25;100.00;98826.52;111214;1206;66040;-83
2021/09/01 01:12:04;;;;;;;4.70;3.80;;;;;;;13.24;100.00;98829.27;111225;1206;61055;-82
2021/09/01 01:14:37;;;;;;;4.80;3.70;;;;;;;13.23;100.00;98828.87;111216;1205;63973;-83
2021/09/01 01:17:10;;;;;;;3.30;3.00;;;;;;;13.21;100.00;98831.11;111185;1205;61127;-84
2021/09/01 01:19:48;;;;;;;3.30;2.90;;;;;;;13.21;100.00;98829.20;111243;1197;61109;-83
2021/09/01 01:22:32;;;;;;;3.80;3.20;;;;;;;13.19;100.00;98829.83;111209;1205;66033;-84
2021/09/01 01:25:02;;;;;;;3.80;3.10;;;;;;;13.19;100.00;98832.38;111170;1204;61060;-83
2021/09/01 01:27:32;;;;;;;;;;;;;;;13.18;100.00;98833.08;111282;1205;62594;-84
2021/09/01 01:30:12;;;;;;;3.50;3.20;;;;;;;13.18;100.00;98835.27;111160;1198;61049;-84
2021/09/01 01:32:40;;;;;;;4.70;3.50;;;;;;;13.16;100.00;98840.08;111209;1198;61053;-84
2021/09/01 01:35:08;;;;;;;3.60;3.20;;;;;;;13.16;100.00;98841.65;111245;1206;66036;-84
2021/09/01 01:37:36;;;;;;;3.90;2.70;;;;;;;13.16;100.00;98844.38;111251;1206;61090;-84
2021/09/01 01:40:03;;;;;;;4.20;3.20;;;;;;;13.15;100.00;98843.39;111209;1205;62630;-84
2021/09/01 01:42:30;;;;;;;3.30;3.00;;;;;;;13.15;100.00;98848.56;111162;1198;61178;-84
2021/09/01 01:45:00;;;;;;;3.60;3.00;;;;;;;13.13;100.00;98851.73;111246;1206;61078;-84
2021/09/01 01:47:27;;;;;;;3.70;2.80;;;;;;;13.12;100.00;98853.02;111235;1205;64743;-83
2021/09/01 01:49:53;;;;;;;4.20;3.40;;;;;;;13.12;100.00;98854.10;111207;1206;61082;-84
2021/09/01 01:52:20;;;;;;;4.00;3.20;;;;;;;13.12;100.00;98856.25;111209;1197;63802;-83
2021/09/01 01:54:46;;;;;;;4.00;3.30;;;;;;;13.11;100.00;98856.86;111167;1200;61181;-86
2021/09/01 01:57:14;;;;;;;5.10;3.70;;;;;;;13.11;100.00;98854.94;111257;1201;61029;-83
2021/09/01 01:59:41;;;;;;;5.00;3.60;;;;;;;13.10;100.00;98855.52;111180;1197;65664;-83
2021/09/01 02:02:07;;;;;;;5.10;3.80;;;;;;;13.09;100.00;98858.84;111210;1206;61010;-83
2021/09/01 02:04:34;;;;;;;4.40;3.90;;;;;;;13.10;100.00;98862.14;111195;1206;62687;-83
2021/09/01 02:07:00;;;;;;;4.00;3.30;;;;;;;13.09;100.00;98860.61;111193;1206;61063;-83
2021/09/01 02:09:27;;;;;;;4.30;3.80;;;;;;;13.08;100.00;98857.64;111178;1206;60992;-83
2021/09/01 02:11:54;;;;;;;4.70;3.90;;;;;;;13.08;100.00;98860.70;111124;1206;64658;-83
2021/09/01 02:14:20;;;;;;;4.50;3.70;;;;;;;13.07;100.00;98860.80;111190;1205;61166;-83
2021/09/01 02:16:47;;;;;;;4.90;4.10;;;;;;;13.07;100.00;98858.86;111195;1205;63990;-83
2021/09/01 02:19:14;;;;;;;4.70;4.30;;;;;;;13.07;100.00;98861.19;111194;1206;61071;-83
2021/09/01 02:21:41;;;;;;;5.00;4.50;;;;;;;13.07;100.00;98862.20;111188;1206;61087;-84
2021/09/01 02:24:08;;;;;;;3.90;3.50;;;;;;;13.05;100.00;98860.21;111198;1206;65851;-84
2021/09/01 02:26:35;;;;;;;4.60;4.10;;;;;;;13.03;100.00;98866.59;111196;1205;61081;-83
2021/09/01 02:29:01;;;;;;;4.50;4.10;;;;;;;13.02;100.00;98866.52;111196;1206;63980;-83
2021/09/01 02:31:28;;;;;;;4.20;3.80;;;;;;;13.03;100.00;98865.41;111237;1205;61165;-83
2021/09/01 02:33:55;;;;;;;4.70;3.70;;;;;;;13.00;100.00;98868.33;111207;1199;61076;-82
2021/09/01 02:36:21;;;;;;;5.30;4.10;;;;;;;12.96;100.00;98868.92;111175;1204;66031;-85
2021/09/01 02:38:48;;;;;;;3.60;3.30;;;;;;;12.94;100.00;98869.26;111220;1205;61088;-85
2021/09/01 02:41:15;;;;;;;4.40;3.70;;;;;;;12.92;100.00;98871.25;111173;1205;63964;-84
2021/09/01 02:43:41;;;;;;;4.00;3.20;;;;;;;12.90;100.00;98876.73;111179;1197;61100;-83
2021/09/01 02:46:08;;;;;;;4.10;3.60;;;;;;;12.87;100.00;98875.16;111167;1206;61103;-84
2021/09/01 02:48:35;;;;;;;3.70;3.10;;;;;;;12.84;100.00;98874.34;111195;1205;66960;-84
2021/09/01 02:51:01;;;;;;;4.60;3.30;;;;;;;12.83;100.00;98877.33;111235;1206;61197;-85
2021/09/01 02:53:28;;;;;;;3.50;3.20;;;;;;;12.81;100.00;98880.27;111141;1206;63951;-83
2021/09/01 02:55:54;;;;;;;3.70;3.30;;;;;;;12.80;100.00;98879.88;111165;1206;61071;-85
2021/09/01 02:58:21;;;;;;;3.30;3.00;;;;;;;12.79;100.00;98883.34;110922;1205;60962;-84
2021/09/01 03:00:48;;;;;;;4.20;3.50;;;;;;;12.79;100.00;98880.70;110771;1206;65675;-83
2021/09/01 03:03:14;;;;;;;3.70;2.90;;;;;;;12.78;100.00;98882.36;110922;1205;61106;-85
2021/09/01 03:05:41;;;;;;;3.50;2.80;;;;;;;12.76;100.00;98886.23;111046;1205;62344;-83
2021/09/01 03:08:08;;;;;;;3.20;2.90;;;;;;;12.74;100.00;98887.28;111169;1205;61043;-83
2021/09/01 03:10:34;;;;;;;3.70;3.10;;;;;;;12.72;100.00;98890.06;111108;1198;61065;-83
2021/09/01 03:13:02;;;;;;;3.70;3.00;;;;;;;12.71;100.00;98890.52;111159;1206;66099;-84
2021/09/01 03:15:29;;;;;;;3.20;2.90;;;;;;;12.70;100.00;98892.40;111176;1206;61064;-85
2021/09/01 03:17:55;;;;;;;4.10;3.60;;;;;;;12.69;100.00;98895.64;111186;1206;62441;-84
2021/09/01 03:20:22;;;;;;;4.60;2.90;;;;;;;12.70;100.00;98898.96;111205;1205;61153;-84
2021/09/01 03:22:49;;;;;;;5.80;3.10;;;;;;;12.71;100.00;98898.91;111252;1199;60984;-84
2021/09/01 03:25:15;;;;;;;3.80;3.40;;;;;;;12.71;100.00;98903.66;111242;1205;65842;-85
2021/09/01 03:27:42;;;;;;;3.00;2.80;;;;;;;12.72;100.00;98908.59;111074;1206;61088;-86
2021/09/01 03:30:09;;;;;;;4.00;3.00;;;;;;;12.73;100.00;98905.65;111358;1206;63973;-86
2021/09/01 03:32:36;;;;;;;2.70;2.50;;;;;;;12.73;100.00;98907.14;111207;1205;61059;-85
2021/09/01 03:35:04;;;;;;;5.20;3.00;;;;;;;12.72;100.00;98907.40;111106;1199;61069;-86
2021/09/01 03:37:31;;;;;;;3.50;2.60;;;;;;;12.71;100.00;98911.33;111167;1205;64743;-85
2021/09/01 03:39:57;;;;;;;3.80;3.10;;;;;;;12.72;100.00;98913.95;111192;1206;61120;-85
2021/09/01 03:42:24;;;;;;;5.10;2.60;;;;;;;12.72;100.00;98914.00;111181;1205;62432;-83
2021/09/01 03:44:51;;;;;;;2.90;2.50;;;;;;;12.72;100.00;98915.04;111141;1198;61200;-83
2021/09/01 03:47:17;;;;;;;3.40;2.70;;;;;;;12.70;100.00;98915.52;111125;1199;61049;-84
2021/09/01 03:49:44;;;;;;;3.40;2.80;;;;;;;12.70;100.00;98916.95;111113;1206;64640;-84
2021/09/01 03:52:11;;;;;;;3.20;2.90;;;;;;;12.70;100.00;98920.58;111135;1205;61086;-83
2021/09/01 03:54:39;;;;;;;3.20;2.80;;;;;;;12.69;100.00;98922.73;111097;1205;64136;-83
2021/09/01 03:57:06;;;;;;;3.70;3.00;;;;;;;12.69;100.00;98926.88;111182;1205;61121;-83
2021/09/01 03:59:33;;;;;;;4.30;3.20;;;;;;;12.69;100.00;98929.56;111190;1198;61070;-83
2021/09/01 04:01:59;;;;;;;3.40;2.90;;;;;;;12.68;100.00;98929.41;111159;1206;66071;-83
2021/09/01 04:04:26;;;;;;;3.10;2.80;;;;;;;12.68;100.00;98932.79;111168;1199;61068;-83
2021/09/01 04:06:52;;;;;;;3.40;3.10;;;;;;;12.69;100.00;98935.38;111184;1205;63657;-83
2021/09/01 04:09:19;;;;;;;4.90;3.10;;;;;;;12.71;100.00;98937.17;111193;1206;61102;-83
2021/09/01 04:11:46;;;;;;;5.40;3.00;;;;;;;12.73;100.00;98942.40;111245;1205;61079;-85
2021/09/01 04:14:12;;;;;;;4.30;2.50;;;;;;;12.73;100.00;98941.67;111204;1207;65997;-85
2021/09/01 04:16:39;;;;;;;3.20;2.90;;;;;;;12.73;100.00;98943.11;111187;1205;61114;-84
2021/09/01 04:19:07;;;;;;;4.10;3.00;;;;;;;12.73;100.00;98946.15;111178;1205;62631;-84
2021/09/01 04:21:33;;;;;;;4.30;2.90;;;;;;;12.72;100.00;98951.71;111223;1205;61096;-85
2021/09/01 04:24:00;;;;;;;3.60;3.20;;;;;;;12.75;100.00;98957.08;111232;1198;61112;-84
2021/09/01 04:26:27;;;;;;;4.10;3.40;;;;;;;12.77;100.00;98959.45;111163;1198;75888;-85
2021/09/01 04:28:53;;;;;;;3.50;3.20;;;;;;;12.77;100.00;98962.96;111135;1205;61092;-83
2021/09/01 04:31:20;;;;;;;3.50;3.20;;;;;;;12.78;100.00;98965.73;111164;1207;63987;-84
2021/09/01 04:33:47;;;;;;;5.00;3.90;;;;;;;12.79;100.00;98966.95;111175;1205;61044;-84
2021/09/01 04:36:14;;;;;;;3.90;3.50;;;;;;;12.80;100.00;98970.05;111279;1198;61053;-83
2021/09/01 04:38:40;;;;;;;4.60;3.80;;;;;;;12.81;100.00;98973.89;111242;1207;66014;-85
2021/09/01 04:41:07;;;;;;;4.40;3.60;;;;;;;12.80;100.00;98982.20;111181;1205;61044;-83
2021/09/01 04:43:34;;;;;;;5.20;3.90;;;;;;;12.80;100.00;98982.00;111210;1206;62692;-84
2021/09/01 04:46:00;;;;;;;4.30;3.80;;;;;;;12.82;100.00;98983.50;111196;1205;61094;-84
2021/09/01 04:48:27;;;;;;;3.90;3.30;;;;;;;12.83;100.00;98989.77;111199;1203;61016;-84
2021/09/01 04:50:53;;;;;;;4.50;4.10;;;;;;;12.84;100.00;98989.18;111183;1198;65779;-84
2021/09/01 04:53:20;;;;;;;5.70;4.00;;;;;;;12.85;100.00;98986.27;111159;1207;61033;-84
2021/09/01 04:55:47;;;;;;;4.40;3.90;;;;;;;12.85;100.00;98988.41;111170;1205;64061;-84
2021/09/01 04:58:14;;;;;;;5.20;4.10;;;;;;;12.86;100.00;98993.34;111205;1203;61182;-84
2021/09/01 05:00:43;;;;;;;4.30;3.90;;;;;;;12.87;100.00;98999.86;111167;1197;61450;-84
2021/09/01 05:03:10;;;;;;;4.10;3.70;;;;;;;12.87;100.00;99003.39;111167;1206;66030;-84
2021/09/01 05:05:37;;;;;;;4.60;4.10;;;;;;;12.88;100.00;99000.44;111182;1205;61074;-84
2021/09/01 05:08:04;;;;;;;3.90;3.50;;;;;;;12.89;100.00;99001.63;111179;1205;63976;-84
2021/09/01 05:10:31;;;;;;;4.30;3.80;;;;;;;12.90;100.00;99003.30;111224;1206;61082;-84
2021/09/01 05:12:58;;;;;;;3.40;3.00;;;;;;;12.91;100.00;99000.95;111231;1203;61040;-84
2021/09/01 05:15:25;;;;;;;3.90;3.60;;;;;;;12.92;100.00;99002.27;111234;1207;64737;-84
2021/09/01 05:17:51;;;;;;;4.80;3.80;;;;;;;12.91;100.00;99003.44;111176;1206;61021;-84
2021/09/01 05:20:18;;;;;;;6.20;3.80;;;;;;;12.92;100.00;99006.73;110946;1200;63810;-84
2021/09/01 05:22:47;;;;;;;3.50;3.20;;;;;;;12.93;100.00;99012.34;111260;1203;60991;-84
2021/09/01 05:25:17;;;;;;;3.20;2.90;;;;;;;12.93;100.00;99011.81;111296;1199;61078;-84
2021/09/01 05:27:50;;;;;;;3.10;2.80;;;;;;;12.92;100.00;99013.67;111210;1198;64623;-84
2021/09/01 05:30:19;;;;;;;5.00;3.30;;;;;;;12.93;100.00;99014.00;111223;1205;61409;-84
2021/09/01 05:32:48;;;;;;;4.70;2.90;;;;;;;12.94;100.00;99018.40;111193;1198;65073;-84
2021/09/01 05:35:16;;;;;;;2.90;2.60;;;;;;;12.93;100.00;99023.23;111258;1200;61177;-84
2021/09/01 05:37:44;;;;;;;4.10;2.70;;;;;;;12.94;100.00;99018.74;111273;1205;61192;-83
2021/09/01 05:40:13;;;;;;;3.10;2.80;;;;;;;12.94;100.00;99021.21;111156;1206;66010;-83
2021/09/01 05:42:40;;;;;;;3.70;3.30;;;;;;;12.95;100.00;99023.13;111218;1205;61387;-83
2021/09/01 05:45:09;;;;;;;3.20;2.70;;;;;;;12.95;100.00;99026.48;111242;1207;62736;-82
2021/09/01 05:47:36;;;;;;;2.70;2.50;;;;;;;12.96;100.00;99028.58;111230;1203;61069;-82
2021/09/01 05:50:04;;;;;;;3.10;2.80;;;;;;;12.94;100.00;99031.56;111191;1205;61068;-83
2021/09/01 05:52:31;;;;;;;2.80;2.40;;;;;;;12.93;100.00;99032.91;111238;1205;64644;-85
2021/09/01 05:55:03;;;;;;;2.10;1.90;;;;;;;12.93;100.00;99034.82;111138;1199;61113;-84
2021/09/01 05:57:36;;;;;;;2.80;2.30;;;;;;;12.94;100.00;99033.84;111197;1205;64016;-84
2021/09/01 06:00:07;;;;;;;3.10;2.40;;;;;;;12.94;100.00;99035.30;111206;1205;61080;-84
2021/09/01 06:02:54;;;;;;;3.90;2.90;;;;;;;12.93;100.00;99040.70;111235;1205;61080;-84
2021/09/01 06:05:22;;;;;;;3.20;2.90;;;;;;;12.94;100.00;99041.33;111267;1205;65995;-84
2021/09/01 06:07:54;;;;;;;4.90;3.10;;;;;;;12.97;100.00;99043.83;111203;1205;61036;-86
2021/09/01 06:10:29;;;;;;;4.00;3.40;;;;;;;13.01;100.00;99043.52;111123;1205;62637;-83
2021/09/01 06:13:01;;;;;;;4.50;4.10;;;;;;;13.02;100.00;99049.02;111099;1205;61091;-84
2021/09/01 06:15:28;;;;;;;3.80;3.30;;;;;;;13.04;100.00;99051.14;111211;1198;61109;-84
2021/09/01 06:17:56;;;;;;;4.10;3.80;;;;;;;13.05;100.00;99054.08;111239;1205;67107;-82
2021/09/01 06:20:23;;;;;;;4.00;3.50;;;;;;;13.07;100.00;99056.61;111192;1205;61091;-84
2021/09/01 06:22:50;;;;;;;3.10;2.80;;;;;;;13.07;100.00;99059.30;111242;1205;63969;-84
2021/09/01 06:25:16;;;;;;;3.90;3.50;;;;;;;13.05;100.00;99061.75;111253;1205;61384;-84
2021/09/01 06:27:43;;;;;;;3.90;3.40;;;;;;;13.05;100.00;99065.48;111135;1203;61130;-83
2021/09/01 06:30:11;;;;;;;4.60;3.80;;;;;;;13.06;100.00;99069.93;111178;1206;64608;-84
2021/09/01 06:32:38;;;;;;;4.80;3.50;;;;;;;13.05;100.00;99069.63;111216;1205;61074;-84
2021/09/01 06:35:05;;;;;;;4.50;4.00;;;;;;;13.05;100.00;99071.21;111145;1205;62415;-84
2021/09/01 06:37:33;;;;;;;4.80;3.70;;;;;;;13.06;100.00;99069.90;111167;1205;60996;-85
2021/09/01 06:40:00;;;;;;;4.40;4.00;;;;;;;13.07;100.00;99074.45;111201;1198;61093;-84
2021/09/01 06:42:29;;;;;;;4.70;4.00;;;;;;;13.10;100.00;99078.34;111103;1205;66057;-84
2021/09/01 06:44:56;;;;;;;5.30;4.30;;;;;;;13.16;100.00;99079.98;111130;1205;68830;-83
2021/09/01 06:47:23;;;;;;;6.30;5.20;;;;;;;13.18;100.00;99080.20;111124;1206;62583;-83
2021/09/01 06:49:49;;;;;;;7.20;5.10;;;;;;;13.18;100.00;99082.88;111190;1206;61091;-83
2021/09/01 06:52:16;;;;;;;5.70;5.20;;;;;;;13.20;100.00;99086.69;110991;1199;61110;-83
2021/09/01 06:54:43;;;;;;;6.00;5.40;;;;;;;13.21;100.00;99094.77;111257;1205;64354;-83
2021/09/01 06:57:10;;;;;;;7.60;5.90;;;;;;;13.21;100.00;99098.91;111188;1205;61081;-85
2021/09/01 06:59:36;;;;;;;6.80;6.10;;;;;;;13.21;100.00;99105.02;111184;1206;65248;-84
2021/09/01 07:02:03;;;;;;;5.50;4.90;;;;;;;13.21;100.00;99107.48;111178;1203;61091;-83
2021/09/01 07:04:30;;;;;;;7.40;5.20;;;;;;;13.21;100.00;99108.77;111242;1203;61089;-83
2021/09/01 07:06:56;;;;;;;5.80;5.10;;;;;;;13.21;100.00;99115.00;111185;1205;65988;-83
2021/09/01 07:09:23;;;;;;;5.70;5.00;;;;;;;13.21;100.00;99115.17;111186;1205;61007;-83
2021/09/01 07:11:50;;;;;;;5.60;4.90;;;;;;;13.21;100.00;99115.73;111176;1205;72754;-83
2021/09/01 07:14:17;;;;;;;6.80;5.90;;;;;;;13.23;100.00;99120.55;111176;1199;61037;-83
2021/09/01 07:16:44;;;;;;;6.20;5.60;;;;;;;13.29;100.00;99123.33;111196;1203;61153;-83
2021/09/01 07:19:10;;;;;;;6.30;5.40;;;;;;;13.30;100.00;99122.33;111202;1206;66000;-83
2021/09/01 07:21:37;;;;;;;6.40;5.70;;;;;;;13.31;100.00;99127.09;111195;1205;61555;-85
2021/09/01 07:24:03;;;;;;;7.80;5.30;;;;;;;13.32;100.00;99133.80;111194;1205;63940;-83
2021/09/01 07:26:30;;;;;;;6.20;5.60;;;;;;;13.32;100.00;99134.30;111188;1198;61146;-83
2021/09/01 07:28:57;;;;;;;6.30;5.70;;;;;;;13.33;100.00;99137.77;111193;1199;61204;-83
2021/09/01 07:31:24;;;;;;;8.40;5.70;;;;;;;13.34;100.00;99143.08;111188;1205;64589;-85
2021/09/01 07:33:50;;;;;;;5.90;5.30;;;;;;;13.37;100.00;99144.09;111178;1199;61093;-85
2021/09/01 07:36:17;;;;;;;6.30;5.40;;;;;;;13.44;100.00;99151.66;111195;1206;63703;-85
2021/09/01 07:38:44;;;;;;;6.00;5.10;;;;;;;13.48;100.00;99153.79;111152;1207;61222;-85
2021/09/01 07:41:13;;;;;;;7.50;5.60;;;;;;;13.48;100.00;99163.65;111220;1205;61106;-85
2021/09/01 07:43:41;;;;;;;5.30;4.80;;;;;;;13.45;100.00;99167.61;111195;1205;64618;-84
2021/09/01 07:46:09;;;;;;;7.10;5.70;;;;;;;13.43;100.00;99170.30;111216;1206;61023;-85
2021/09/01 07:48:36;;;;;;;4.80;4.40;;;;;;;13.44;100.00;99172.49;111126;1205;63976;-85
2021/09/01 07:51:03;;;;;;;5.10;4.40;;;;;;;13.44;100.00;99171.77;111149;1206;61074;-84
2021/09/01 07:53:30;;;;;;;5.60;4.50;;;;;;;13.46;100.00;99173.45;111190;1199;61059;-84
2021/09/01 07:55:57;;;;;;;4.80;4.40;;;;;;;13.50;100.00;99177.42;111202;1205;65967;-85
2021/09/01 07:58:24;;;;;;;5.20;4.70;;;;;;;13.54;100.00;99179.27;111175;1203;61055;-84
2021/09/01 08:00:51;;;;;;;6.60;5.00;;;;;;;13.60;100.00;99175.76;111095;1205;64154;-85
2021/09/01 08:03:18;;;;;;;4.80;4.40;;;;;;;13.69;100.00;99174.02;111170;1207;61113;-83
2021/09/01 08:05:45;;;;;;;4.60;4.10;;;;;;;13.80;100.00;99179.88;111191;1198;61070;-85
2021/09/01 08:08:12;;;;;;;5.20;4.60;;;;;;;13.85;100.00;99182.59;111170;1205;64634;-85
2021/09/01 08:10:39;;;;;;;5.30;4.60;;;;;;;13.88;100.00;99184.13;111195;1205;61033;-85
2021/09/01 08:13:06;;;;;;;6.50;4.90;;;;;;;13.90;100.00;99185.24;111170;1205;62311;-83
2021/09/01 08:15:32;;;;;;;5.20;4.70;;;;;;;13.93;100.00;99191.06;111167;1205;61047;-85
2021/09/01 08:18:00;;;;;;;6.40;5.00;;;;;;;13.98;100.00;99192.06;111172;1198;61015;-84
2021/09/01 08:20:27;;;;;;;6.30;5.00;;;;;;;14.03;100.00;99196.16;111212;1197;64643;-84
2021/09/01 08:22:53;;;;;;;5.90;5.30;;;;;;;14.07;100.00;99203.23;111126;1206;61091;-85
2021/09/01 08:25:21;;;;;;;5.10;4.60;;;;;;;14.09;100.00;99207.70;111171;1205;62472;-84
2021/09/01 08:27:49;;;;;;;7.30;5.50;;;;;;;14.12;100.00;99211.77;111162;1203;61136;-83
2021/09/01 08:30:16;;;;;;;5.60;5.10;;;;;;;14.14;100.00;99214.80;111189;1205;61058;-84
2021/09/01 08:32:43;;;;;;;6.70;6.10;;;;;;;14.15;100.00;99213.14;111187;1205;66077;-84
2021/09/01 08:35:11;;;;;;;6.50;5.70;;;;;;;14.21;100.00;99216.92;111230;1205;61101;-84
2021/09/01 08:37:39;;;;;;;6.40;5.10;;;;;;;14.24;100.00;99222.23;111181;1205;64039;-84
2021/09/01 08:40:07;;;;;;;7.70;6.10;;;;;;;14.27;100.00;99221.98;111175;1206;61182;-84
2021/09/01 08:42:38;;;;;;;6.30;5.50;;;;;;;14.30;100.00;99227.48;111207;1198;61043;-85
2021/09/01 08:45:05;;;;;;;;;;;;;;;14.33;100.00;99229.10;111197;1205;64552;-85
2021/09/01 08:47:33;;;;;;;8.70;7.30;;;;;;;14.34;100.00;99236.16;111196;1204;61059;-84
2021/09/01 08:50:01;;;;;;;9.10;7.00;;;;;;;14.32;100.00;99247.16;111086;1205;63798;-84
2021/09/01 08:52:28;;;;;;;8.60;7.80;;;;;;;14.34;100.00;99250.08;111077;1205;61007;-85
2021/09/01 08:54:55;;;;;;;8.80;7.40;;;;;;;14.39;100.00;99250.73;111199;1199;61093;-84
2021/09/01 08:57:22;;;;;;;8.60;7.80;;;;;;;14.46;100.00;99255.52;111187;1204;65988;-86
2021/09/01 08:59:49;;;;;;;8.00;7.30;;;;;;;14.53;100.00;99258.77;111204;1205;61043;-84
2021/09/01 09:02:26;;;;;;;11.70;7.90;;;;;;;14.61;100.00;99259.98;111174;1206;63372;-85
2021/09/01 09:04:53;;;;;;;10.40;7.20;;;;;;;14.66;100.00;99261.80;111153;1205;61095;-84
2021/09/01 09:07:23;;;;;;;8.50;7.70;;;;;;;14.77;100.00;99264.16;111224;1198;61009;-85
2021/09/01 09:09:51;;;;;;;10.70;8.00;;;;;;;14.88;100.00;99266.49;111144;1203;66939;-86
2021/09/01 09:12:29;;;;;;;8.50;7.60;;;;;;;14.99;100.00;99270.84;111206;1205;61044;-85
2021/09/01 09:14:57;;;;;;;8.70;7.80;;;;;;;15.01;100.00;99274.81;111168;1205;63987;-85
2021/09/01 09:17:35;;;;;;;9.70;8.70;;;;;;;15.01;100.00;99271.23;111194;1197;61162;-85
2021/09/01 09:20:05;;;;;;;9.60;8.20;;;;;;;15.10;100.00;99271.58;111280;1204;61101;-84
2021/09/01 09:22:37;;;;;;;10.80;8.60;;;;;;;15.23;100.00;99269.39;111302;1204;65995;-87
2021/09/01 09:25:07;;;;;;;11.20;9.10;;;;;;;15.46;100.00;99268.81;111466;1205;61071;-87
2021/09/01 09:27:39;;;;;;;9.80;8.60;;;;;;;15.68;100.00;99265.37;111327;1205;62644;-84
2021/09/01 09:30:27;;;;;;;10.10;9.10;;;;;;;15.86;100.00;99264.60;111419;1205;61075;-86
2021/09/01 09:33:23;;;;;;;11.40;9.60;;;;;;;15.87;99.94;99262.59;111372;1201;61115;-86
2021/09/01 09:35:58;;;;;;;10.90;9.20;;;;;;;15.91;99.13;99262.17;111219;1205;74727;-88
2021/09/01 09:38:42;;;;;;;11.20;9.40;;;;;;;16.00;97.85;99266.67;111260;1204;61010;-86
2021/09/01 09:41:18;;;;;;;12.60;9.90;;;;;;;16.12;98.17;99267.04;111261;1205;64108;-87
2021/09/01 09:43:45;;;;;;;11.40;9.70;;;;;;;16.18;97.99;99268.86;111237;1204;61015;-85
2021/09/01 09:46:11;;;;;;;10.10;9.00;;;;;;;16.14;97.15;99272.97;111146;1205;61069;-85
2021/09/01 09:48:42;;;;;;;10.50;8.50;;;;;;;16.08;96.83;99273.97;111262;1205;67261;-85
2021/09/01 09:51:13;;;;;;;11.40;8.30;;;;;;;16.09;96.92;99275.17;111276;1207;60968;-84
2021/09/01 09:53:41;;;;;;;9.30;8.00;;;;;;;15.99;96.17;99279.83;111224;1205;63961;-85
2021/09/01 09:56:19;;;;;;;10.40;8.80;;;;;;;15.86;96.42;99281.96;111205;1205;61126;-85
2021/09/01 09:58:54;;;;;;;12.50;9.70;;;;;;;15.81;96.40;99284.19;111203;1205;61038;-85
2021/09/01 10:01:24;;;;;;;14.00;8.60;;;;;;;15.84;96.50;99289.11;111253;1206;65984;-85
2021/09/01 10:03:51;;;;;;;12.70;8.50;;;;;;;16.14;96.76;99288.16;111127;1204;61137;-85
2021/09/01 10:06:20;;;;;;;8.60;7.70;;;;;;;16.52;96.01;99287.61;111280;1204;63956;-86
2021/09/01 10:08:49;;;;;;;9.70;8.00;;;;;;;16.77;95.04;99288.84;111301;1196;61110;-85
2021/09/01 10:11:19;;;;;;;11.40;9.40;;;;;;;16.82;94.40;99292.40;111290;1196;60980;-86
2021/09/01 10:13:49;;;;;;;9.20;8.30;;;;;;;16.86;93.11;99294.73;111225;1204;65714;-87
2021/09/01 10:16:16;;;;;;;8.80;7.40;;;;;;;16.84;93.23;99296.48;111166;1205;61115;-87
2021/09/01 10:18:46;;;;;;;8.20;7.40;;;;;;;16.84;92.58;99301.69;111164;1197;63994;-88
2021/09/01 10:21:16;;;;;;;8.70;7.80;;;;;;;16.95;92.21;99305.64;111227;1198;61075;-87
2021/09/01 10:23:45;;;;;;;11.40;7.80;;;;;;;16.92;92.43;99304.44;111199;1205;61621;-87
2021/09/01 10:26:33;;;;;;;9.30;8.30;;;;;;;16.73;92.64;99308.23;111107;1205;64740;-85
2021/09/01 10:29:02;;;;;;;11.40;8.80;;;;;;;16.47;92.51;99312.65;111072;1205;61176;-84
2021/09/01 10:31:35;;;;;;;8.80;7.90;;;;;;;16.32;92.85;99316.58;111153;1205;65207;-84
2021/09/01 10:34:27;;;;;;;9.70;7.70;;;;;;;16.23;93.33;99319.46;111191;1205;61112;-86
2021/09/01 10:36:54;;;;;;;10.70;7.70;;;;;;;16.20;92.96;99323.20;111176;1205;61031;-87
2021/09/01 10:39:30;;;;;;;8.90;7.30;;;;;;;16.13;92.39;99330.58;111178;1206;64634;-86
2021/09/01 10:41:57;;;;;;;8.50;7.60;;;;;;;16.11;91.84;99332.92;111237;1205;61132;-85
2021/09/01 10:44:26;;;;;;;10.80;7.70;;;;;;;16.17;91.90;99332.02;111201;1204;63972;-86
2021/09/01 10:46:55;;;;;;;8.70;7.70;;;;;;;16.24;91.92;99333.20;111176;1200;61497;-86
2021/09/01 10:49:46;;;;;;;9.90;7.90;;;;;;;16.33;92.08;99328.02;111209;1205;61060;-86
2021/09/01 10:52:13;;;;;;;9.40;8.00;;;;;;;16.43;91.53;99329.48;111137;1205;67009;-86
2021/09/01 10:54:41;;;;;;;8.60;7.00;;;;;;;16.69;91.40;99334.02;111121;1206;61149;-85
2021/09/01 10:57:30;;;;;;;11.70;8.20;;;;;;;17.08;90.66;99333.91;111155;1205;64784;-87
2021/09/01 10:59:58;;;;;;;8.90;7.90;;;;;;;17.50;90.38;99332.80;111151;1201;61103;-86
2021/09/01 11:02:25;;;;;;;9.00;7.60;;;;;;;17.78;89.04;99331.93;111198;1205;61033;-85
2021/09/01 11:04:58;;;;;;;8.60;7.70;;;;;;;18.06;89.27;99332.42;111206;1205;65928;-87
2021/09/01 11:12:10;;;;;;;9.30;6.50;;;;;;;18.37;84.87;99336.88;111232;1205;65103;-86
2021/09/01 11:14:40;;;;;;;8.50;6.80;;;;;;;18.26;83.93;99334.32;111193;1205;61139;-86
2021/09/01 11:17:11;;;;;;;8.30;6.60;;;;;;;18.19;83.84;99340.55;111217;1198;61044;-86
2021/09/01 11:19:40;;;;;;;8.00;6.10;;;;;;;18.16;82.80;99337.80;111190;1205;64622;-85
2021/09/01 11:22:12;;;;;;;7.50;6.30;;;;;;;18.13;82.94;99342.20;111169;1205;61081;-85
2021/09/01 11:24:51;;;;;;;7.20;6.40;;;;;;;18.04;81.68;99345.59;111191;1205;63763;-86
2021/09/01 11:27:23;;;;;;;7.80;7.00;;;;;;;17.89;81.87;99354.85;111161;1206;61091;-85
2021/09/01 11:29:58;;;;;;;7.70;7.00;;;;;;;17.77;81.86;99360.18;111198;1197;61499;-85